createdAt,value
2019-02-12T00:00:44.501Z,1017.39
2019-02-12T00:01:44.422Z,1017.50
2019-02-12T00:02:44.416Z,1017.50
2019-02-12T00:03:44.455Z,1017.49
2019-02-12T00:04:44.385Z,1017.56
2019-02-12T00:05:44.398Z,1017.53
2019-02-12T00:06:44.365Z,1017.52
2019-02-12T00:07:44.363Z,1017.59
2019-02-12T00:08:44.345Z,1017.47
2019-02-12T00:09:44.333Z,1017.50
2019-02-12T00:10:44.361Z,1017.58
2019-02-12T00:11:44.311Z,1017.57
2019-02-12T00:12:44.307Z,1017.58
2019-02-12T00:13:44.291Z,1017.54
2019-02-12T00:14:44.281Z,1017.54
2019-02-12T00:15:44.280Z,1017.54
2019-02-12T00:16:44.289Z,1017.60
2019-02-12T00:17:44.262Z,1017.54
2019-02-12T00:18:44.239Z,1017.62
2019-02-12T00:19:44.239Z,1017.49
2019-02-12T00:20:44.229Z,1017.46
2019-02-12T00:21:44.230Z,1017.52
2019-02-12T00:22:44.196Z,1017.41
2019-02-12T00:23:44.183Z,1017.48
2019-02-12T00:24:44.175Z,1017.58
2019-02-12T00:25:44.167Z,1017.48
2019-02-12T00:26:44.186Z,1017.36
2019-02-12T00:27:44.154Z,1017.55
2019-02-12T00:28:44.131Z,1017.49
2019-02-12T00:29:44.139Z,1017.52
2019-02-12T00:30:44.113Z,1017.45
2019-02-12T00:31:44.093Z,1017.52
2019-02-12T00:32:44.104Z,1017.52
2019-02-12T00:33:44.095Z,1017.52
2019-02-12T00:34:44.075Z,1017.57
2019-02-12T00:35:44.061Z,1017.51
2019-02-12T00:36:44.047Z,1017.63
2019-02-12T00:37:44.127Z,1017.64
2019-02-12T00:38:44.026Z,1017.56
2019-02-12T00:39:44.033Z,1017.61
2019-02-12T00:40:44.006Z,1017.73
2019-02-12T00:41:43.993Z,1017.52
2019-02-12T00:42:43.988Z,1017.65
2019-02-12T00:43:44.000Z,1017.69
2019-02-12T00:44:43.963Z,1017.69
2019-02-12T00:45:43.975Z,1017.80
2019-02-12T00:46:43.941Z,1017.86
2019-02-12T00:47:43.928Z,1017.75
2019-02-12T00:48:43.939Z,1017.68
2019-02-12T00:49:43.907Z,1017.65
2019-02-12T00:50:43.895Z,1017.73
2019-02-12T00:51:43.896Z,1017.80
2019-02-12T00:52:43.878Z,1017.76
2019-02-12T00:53:43.888Z,1017.74
2019-02-12T00:54:43.884Z,1017.70
2019-02-12T00:55:43.842Z,1017.78
2019-02-12T00:56:43.844Z,1017.66
2019-02-12T00:57:43.820Z,1017.73
2019-02-12T00:58:43.832Z,1017.72
2019-02-12T00:59:43.803Z,1017.77
2019-02-12T01:00:43.791Z,1017.66
2019-02-12T01:01:43.777Z,1017.80
2019-02-12T01:02:43.780Z,1017.58
2019-02-12T01:03:43.800Z,1017.65
2019-02-12T01:04:43.767Z,1017.70
2019-02-12T01:05:43.749Z,1017.68
2019-02-12T01:06:43.730Z,1017.67
2019-02-12T01:07:43.720Z,1017.64
2019-02-12T01:08:43.702Z,1017.67
2019-02-12T01:09:43.737Z,1017.58
2019-02-12T01:10:43.686Z,1017.71
2019-02-12T01:11:43.684Z,1017.57
2019-02-12T01:12:43.659Z,1017.66
2019-02-12T01:13:43.651Z,1017.58
2019-02-12T01:14:43.666Z,1017.69
2019-02-12T01:15:43.668Z,1017.66
2019-02-12T01:16:43.630Z,1017.80
2019-02-12T01:17:43.619Z,1017.79
2019-02-12T01:18:43.598Z,1017.71
2019-02-12T01:19:43.586Z,1017.73
2019-02-12T01:20:43.590Z,1017.73
2019-02-12T01:21:43.567Z,1017.78
2019-02-12T01:22:43.553Z,1017.75
2019-02-12T01:23:43.545Z,1017.82
2019-02-12T01:24:43.553Z,1017.95
2019-02-12T01:25:43.547Z,1017.84
2019-02-12T01:26:43.528Z,1017.91
2019-02-12T01:27:43.502Z,1017.83
2019-02-12T01:28:43.510Z,1017.87
2019-02-12T01:29:43.475Z,1017.86
2019-02-12T01:30:43.485Z,1017.98
2019-02-12T01:31:43.464Z,1017.93
2019-02-12T01:32:43.505Z,1017.84
2019-02-12T01:33:43.441Z,1017.93
2019-02-12T01:34:43.436Z,1017.94
2019-02-12T01:35:43.448Z,1018.01
2019-02-12T01:36:43.403Z,1018.04
2019-02-12T01:37:43.390Z,1018.04
2019-02-12T01:38:43.381Z,1018.10
2019-02-12T01:39:43.369Z,1018.21
2019-02-12T01:40:43.387Z,1018.11
2019-02-12T01:41:43.348Z,1018.18
2019-02-12T01:42:43.353Z,1018.11
2019-02-12T01:43:43.331Z,1018.13
2019-02-12T01:44:43.321Z,1018.11
2019-02-12T01:45:43.328Z,1018.06
2019-02-12T01:46:43.298Z,1018.14
2019-02-12T01:47:43.287Z,1018.14
2019-02-12T01:48:43.277Z,1018.21
2019-02-12T01:49:43.290Z,1018.21
2019-02-12T01:50:43.285Z,1018.21
2019-02-12T01:51:43.256Z,1018.20
2019-02-12T01:52:43.244Z,1018.25
2019-02-12T01:53:43.224Z,1018.25
2019-02-12T01:54:43.216Z,1018.44
2019-02-12T01:55:43.296Z,1018.18
2019-02-12T01:56:43.196Z,1018.15
2019-02-12T01:57:43.186Z,1018.22
2019-02-12T01:58:43.168Z,1018.30
2019-02-12T01:59:43.158Z,1018.27
2019-02-12T02:00:43.232Z,1018.33
2019-02-12T02:01:43.169Z,1018.35
2019-02-12T02:02:43.128Z,1018.36
2019-02-12T02:03:43.118Z,1018.29
2019-02-12T02:04:43.106Z,1018.29
2019-02-12T02:05:43.096Z,1018.35
2019-02-12T02:06:43.116Z,1018.32
2019-02-12T02:07:43.185Z,1018.25
2019-02-12T02:08:43.066Z,1018.28
2019-02-12T02:09:43.048Z,1018.31
2019-02-12T02:10:43.040Z,1018.28
2019-02-12T02:11:43.075Z,1018.45
2019-02-12T02:12:43.032Z,1018.43
2019-02-12T02:13:43.010Z,1018.38
2019-02-12T02:14:43.000Z,1018.43
2019-02-12T02:15:42.986Z,1018.39
2019-02-12T02:16:43.001Z,1018.34
2019-02-12T02:17:42.975Z,1018.44
2019-02-12T02:18:42.950Z,1018.34
2019-02-12T02:19:42.953Z,1018.33
2019-02-12T02:20:42.931Z,1018.31
2019-02-12T02:21:44.320Z,1018.33
2019-02-12T02:22:42.910Z,1018.34
2019-02-12T02:23:42.902Z,1018.31
2019-02-12T02:24:42.890Z,1018.47
2019-02-12T02:25:42.915Z,1018.43
2019-02-12T02:26:42.886Z,1018.61
2019-02-12T02:27:42.913Z,1018.39
2019-02-12T02:28:42.856Z,1018.49
2019-02-12T02:29:42.838Z,1018.37
2019-02-12T02:30:42.824Z,1018.59
2019-02-12T02:31:42.849Z,1018.58
2019-02-12T02:32:42.808Z,1018.61
2019-02-12T02:33:42.833Z,1018.62
2019-02-12T02:34:42.789Z,1018.59
2019-02-12T02:35:42.779Z,1018.64
2019-02-12T02:36:42.768Z,1018.59
2019-02-12T02:37:42.780Z,1018.62
2019-02-12T02:38:42.743Z,1018.47
2019-02-12T02:39:42.739Z,1018.66
2019-02-12T02:40:42.726Z,1018.61
2019-02-12T02:41:42.707Z,1018.67
2019-02-12T02:42:42.716Z,1018.62
2019-02-12T02:43:42.702Z,1018.61
2019-02-12T02:44:42.693Z,1018.58
2019-02-12T02:45:42.671Z,1018.65
2019-02-12T02:46:42.664Z,1018.64
2019-02-12T02:47:42.745Z,1018.66
2019-02-12T02:48:42.655Z,1018.71
2019-02-12T02:49:42.683Z,1018.70
2019-02-12T02:50:42.612Z,1018.63
2019-02-12T02:51:42.623Z,1018.69
2019-02-12T02:52:42.636Z,1018.58
2019-02-12T02:53:42.582Z,1018.65
2019-02-12T02:54:42.576Z,1018.74
2019-02-12T02:55:42.560Z,1018.77
2019-02-12T02:56:42.548Z,1018.73
2019-02-12T02:57:42.558Z,1018.63
2019-02-12T02:58:42.564Z,1018.69
2019-02-12T02:59:42.533Z,1018.72
2019-02-12T03:00:42.521Z,1018.82
2019-02-12T03:01:42.498Z,1018.85
2019-02-12T03:02:42.540Z,1018.83
2019-02-12T03:03:42.479Z,1018.86
2019-02-12T03:04:42.476Z,1018.78
2019-02-12T03:05:42.460Z,1018.78
2019-02-12T03:06:42.453Z,1018.75
2019-02-12T03:07:42.460Z,1018.75
2019-02-12T03:08:42.439Z,1018.88
2019-02-12T03:09:42.412Z,1018.73
2019-02-12T03:10:42.421Z,1018.77
2019-02-12T03:11:42.395Z,1018.77
2019-02-12T03:12:42.404Z,1018.81
2019-02-12T03:13:42.388Z,1018.89
2019-02-12T03:14:42.357Z,1018.95
2019-02-12T03:15:42.351Z,1018.94
2019-02-12T03:16:42.389Z,1018.99
2019-02-12T03:17:42.355Z,1018.89
2019-02-12T03:18:42.320Z,1018.89
2019-02-12T03:19:42.312Z,1018.96
2019-02-12T03:20:42.296Z,1018.97
2019-02-12T03:21:42.303Z,1018.92
2019-02-12T03:22:42.310Z,1019.05
2019-02-12T03:23:42.286Z,1019.01
2019-02-12T03:24:42.261Z,1019.05
2019-02-12T03:25:42.243Z,1019.04
2019-02-12T03:26:42.232Z,1019.02
2019-02-12T03:27:42.230Z,1019.06
2019-02-12T03:28:42.238Z,1019.03
2019-02-12T03:29:42.214Z,1019.06
2019-02-12T03:30:42.193Z,1019.18
2019-02-12T03:31:42.183Z,1019.28
2019-02-12T03:32:42.329Z,1019.26
2019-02-12T03:33:42.201Z,1019.28
2019-02-12T03:34:42.159Z,1019.29
2019-02-12T03:35:42.149Z,1019.29
2019-02-12T03:36:42.130Z,1019.26
2019-02-12T03:37:42.153Z,1019.29
2019-02-12T03:38:42.127Z,1019.27
2019-02-12T03:39:42.113Z,1019.26
2019-02-12T03:40:42.145Z,1019.30
2019-02-12T03:41:42.099Z,1019.22
2019-02-12T03:42:42.069Z,1019.21
2019-02-12T03:43:42.074Z,1019.28
2019-02-12T03:44:42.074Z,1019.29
2019-02-12T03:45:42.038Z,1019.28
2019-02-12T03:46:42.030Z,1019.35
2019-02-12T03:47:42.012Z,1019.35
2019-02-12T03:48:41.999Z,1019.35
2019-02-12T03:49:42.008Z,1019.35
2019-02-12T03:50:41.988Z,1019.33
2019-02-12T03:51:41.966Z,1019.33
2019-02-12T03:52:41.988Z,1019.34
2019-02-12T03:53:41.970Z,1019.27
2019-02-12T03:54:41.978Z,1019.38
2019-02-12T03:55:41.925Z,1019.38
2019-02-12T03:56:41.923Z,1019.42
2019-02-12T03:57:41.903Z,1019.40
2019-02-12T03:58:41.906Z,1019.48
2019-02-12T03:59:41.977Z,1019.39
2019-02-12T04:00:41.912Z,1019.45
2019-02-12T04:01:41.862Z,1019.48
2019-02-12T04:02:41.848Z,1019.43
2019-02-12T04:03:41.846Z,1019.45
2019-02-12T04:04:41.860Z,1019.43
2019-02-12T04:05:41.818Z,1019.42
2019-02-12T04:06:41.808Z,1019.45
2019-02-12T04:07:41.794Z,1019.44
2019-02-12T04:08:41.785Z,1019.45
2019-02-12T04:09:41.791Z,1019.43
2019-02-12T04:10:41.765Z,1019.46
2019-02-12T04:11:41.753Z,1019.51
2019-02-12T04:12:41.740Z,1019.49
2019-02-12T04:13:41.749Z,1019.37
2019-02-12T04:14:41.752Z,1019.43
2019-02-12T04:15:41.716Z,1019.38
2019-02-12T04:16:41.703Z,1019.45
2019-02-12T04:17:41.688Z,1019.40
2019-02-12T04:18:41.689Z,1019.43
2019-02-12T04:19:41.707Z,1019.35
2019-02-12T04:20:41.664Z,1019.32
2019-02-12T04:21:41.656Z,1019.33
2019-02-12T04:22:41.644Z,1019.39
2019-02-12T04:23:41.626Z,1019.40
2019-02-12T04:24:41.638Z,1019.37
2019-02-12T04:25:41.610Z,1019.41
2019-02-12T04:26:41.602Z,1019.42
2019-02-12T04:27:41.586Z,1019.35
2019-02-12T04:28:41.582Z,1019.37
2019-02-12T04:29:41.590Z,1019.33
2019-02-12T04:30:41.550Z,1019.33
2019-02-12T04:31:41.552Z,1019.28
2019-02-12T04:32:41.533Z,1019.32
2019-02-12T04:33:41.515Z,1019.30
2019-02-12T04:34:41.531Z,1019.35
2019-02-12T04:35:41.499Z,1019.31
2019-02-12T04:36:41.511Z,1019.46
2019-02-12T04:37:41.496Z,1019.35
2019-02-12T04:38:41.474Z,1019.46
2019-02-12T04:39:41.480Z,1019.43
2019-02-12T04:40:41.487Z,1019.51
2019-02-12T04:41:41.443Z,1019.49
2019-02-12T04:42:41.437Z,1019.56
2019-02-12T04:43:41.424Z,1019.57
2019-02-12T04:44:41.424Z,1019.57
2019-02-12T04:45:41.395Z,1019.64
2019-02-12T04:46:41.387Z,1019.71
2019-02-12T04:47:41.366Z,1019.71
2019-02-12T04:48:41.361Z,1019.67
2019-02-12T04:49:41.389Z,1019.68
2019-02-12T04:50:41.365Z,1019.56
2019-02-12T04:51:41.339Z,1019.62
2019-02-12T04:52:41.318Z,1019.59
2019-02-12T04:53:41.315Z,1019.57
2019-02-12T04:54:41.290Z,1019.60
2019-02-12T04:55:41.314Z,1019.55
2019-02-12T04:56:41.283Z,1019.55
2019-02-12T04:57:41.269Z,1019.51
2019-02-12T04:58:41.254Z,1019.50
2019-02-12T04:59:41.256Z,1019.48
2019-02-12T05:00:41.266Z,1019.59
2019-02-12T05:01:41.235Z,1019.56
2019-02-12T05:02:41.215Z,1019.55
2019-02-12T05:03:41.207Z,1019.59
2019-02-12T05:04:41.188Z,1019.54
2019-02-12T05:05:41.204Z,1019.54
2019-02-12T05:06:41.172Z,1019.61
2019-02-12T05:07:41.186Z,1019.52
2019-02-12T05:08:41.149Z,1019.59
2019-02-12T05:09:41.137Z,1019.43
2019-02-12T05:10:41.193Z,1019.62
2019-02-12T05:11:41.115Z,1019.60
2019-02-12T05:12:41.110Z,1019.48
2019-02-12T05:13:41.094Z,1019.53
2019-02-12T05:14:41.084Z,1019.59
2019-02-12T05:15:41.094Z,1019.62
2019-02-12T05:16:41.060Z,1019.58
2019-02-12T05:17:41.051Z,1019.70
2019-02-12T05:18:41.040Z,1019.66
2019-02-12T05:19:41.051Z,1019.68
2019-02-12T05:20:41.043Z,1019.73
2019-02-12T05:21:41.048Z,1019.66
2019-02-12T05:22:43.547Z,1019.63
2019-02-12T05:23:40.988Z,1019.67
2019-02-12T05:24:40.993Z,1019.71
2019-02-12T05:25:40.967Z,1019.67
2019-02-12T05:26:40.979Z,1019.74
2019-02-12T05:27:40.950Z,1019.58
2019-02-12T05:28:40.978Z,1019.61
2019-02-12T05:29:40.935Z,1019.62
2019-02-12T05:30:40.920Z,1019.52
2019-02-12T05:31:40.936Z,1019.59
2019-02-12T05:32:40.891Z,1019.63
2019-02-12T05:33:40.897Z,1019.50
2019-02-12T05:34:40.872Z,1019.51
2019-02-12T05:35:40.868Z,1019.55
2019-02-12T05:36:40.886Z,1019.52
2019-02-12T05:37:40.842Z,1019.53
2019-02-12T05:38:40.827Z,1019.56
2019-02-12T05:39:40.814Z,1019.57
2019-02-12T05:40:40.805Z,1019.61
2019-02-12T05:41:40.810Z,1019.67
2019-02-12T05:42:40.804Z,1019.68
2019-02-12T05:43:40.780Z,1019.64
2019-02-12T05:44:40.766Z,1019.60
2019-02-12T05:45:40.757Z,1019.66
2019-02-12T05:46:40.763Z,1019.69
2019-02-12T05:47:40.743Z,1019.65
2019-02-12T05:48:40.724Z,1019.68
2019-02-12T05:49:40.709Z,1019.62
2019-02-12T05:50:40.703Z,1019.74
2019-02-12T05:51:40.727Z,1019.76
2019-02-12T05:52:40.700Z,1019.67
2019-02-12T05:53:40.681Z,1019.74
2019-02-12T05:54:40.668Z,1019.69
2019-02-12T05:55:40.650Z,1019.93
2019-02-12T05:56:40.663Z,1019.85
2019-02-12T05:57:40.630Z,1019.88
2019-02-12T05:58:40.618Z,1019.92
2019-02-12T05:59:40.623Z,1019.88
2019-02-12T06:00:40.594Z,1019.99
2019-02-12T06:01:40.663Z,1020.01
2019-02-12T06:02:40.574Z,1020.01
2019-02-12T06:03:40.571Z,1020.02
2019-02-12T06:04:40.555Z,1020.12
2019-02-12T06:05:40.559Z,1020.19
2019-02-12T06:06:40.531Z,1020.17
2019-02-12T06:07:40.572Z,1020.31
2019-02-12T06:08:40.511Z,1020.30
2019-02-12T06:09:40.500Z,1020.35
2019-02-12T06:10:40.504Z,1020.33
2019-02-12T06:11:40.478Z,1020.37
2019-02-12T06:12:40.508Z,1020.47
2019-02-12T06:13:40.452Z,1020.50
2019-02-12T06:14:40.458Z,1020.49
2019-02-12T06:15:40.441Z,1020.47
2019-02-12T06:16:40.427Z,1020.56
2019-02-12T06:17:40.437Z,1020.62
2019-02-12T06:18:40.401Z,1020.60
2019-02-12T06:19:40.389Z,1020.59
2019-02-12T06:20:40.407Z,1020.61
2019-02-12T06:21:40.377Z,1020.60
2019-02-12T06:22:40.383Z,1020.64
2019-02-12T06:23:40.359Z,1020.62
2019-02-12T06:24:40.338Z,1020.62
2019-02-12T06:25:40.336Z,1020.68
2019-02-12T06:26:40.319Z,1020.79
2019-02-12T06:27:40.342Z,1020.82
2019-02-12T06:28:40.294Z,1020.84
2019-02-12T06:29:40.285Z,1020.83
2019-02-12T06:30:40.277Z,1020.78
2019-02-12T06:31:40.267Z,1020.83
2019-02-12T06:32:40.276Z,1020.87
2019-02-12T06:33:40.263Z,1020.84
2019-02-12T06:34:40.252Z,1020.92
2019-02-12T06:35:40.252Z,1020.90
2019-02-12T06:36:40.213Z,1020.95
2019-02-12T06:37:40.222Z,1020.94
2019-02-12T06:38:40.195Z,1021.00
2019-02-12T06:39:40.185Z,1021.07
2019-02-12T06:40:40.169Z,1021.06
2019-02-12T06:41:40.158Z,1021.05
2019-02-12T06:42:40.177Z,1021.09
2019-02-12T06:43:40.156Z,1021.10
2019-02-12T06:44:40.129Z,1021.14
2019-02-12T06:45:40.123Z,1021.14
2019-02-12T06:46:40.111Z,1021.11
2019-02-12T06:47:40.092Z,1021.24
2019-02-12T06:48:40.289Z,1021.28
2019-02-12T06:49:40.074Z,1021.16
2019-02-12T06:50:40.065Z,1021.22
2019-02-12T06:51:40.053Z,1021.22
2019-02-12T06:52:40.085Z,1021.22
2019-02-12T06:53:40.053Z,1021.18
2019-02-12T06:54:40.029Z,1021.15
2019-02-12T06:55:40.014Z,1021.15
2019-02-12T06:56:40.000Z,1021.19
2019-02-12T06:57:39.991Z,1021.21
2019-02-12T06:58:40.003Z,1021.12
2019-02-12T06:59:39.969Z,1021.11
2019-02-12T07:00:39.961Z,1021.19
2019-02-12T07:01:39.947Z,1021.28
2019-02-12T07:02:41.830Z,1021.20
2019-02-12T07:03:39.956Z,1021.25
2019-02-12T07:04:39.937Z,1021.25
2019-02-12T07:05:39.906Z,1021.28
2019-02-12T07:06:39.913Z,1021.34
2019-02-12T07:07:39.884Z,1021.33
2019-02-12T07:08:39.889Z,1021.37
2019-02-12T07:09:39.879Z,1021.43
2019-02-12T07:10:39.864Z,1021.39
2019-02-12T07:11:39.838Z,1021.37
2019-02-12T07:12:39.844Z,1021.47
2019-02-12T07:13:39.847Z,1021.51
2019-02-12T07:14:39.807Z,1021.55
2019-02-12T07:15:39.803Z,1021.62
2019-02-12T07:17:40.771Z,1021.59
2019-02-12T07:18:39.793Z,1021.62
2019-02-12T07:19:39.759Z,1021.63
2019-02-12T07:20:39.745Z,1021.64
2019-02-12T07:21:39.751Z,1021.75
2019-02-12T07:22:39.723Z,1021.67
2019-02-12T07:23:39.713Z,1021.76
2019-02-12T07:24:39.722Z,1021.76
2019-02-12T07:25:39.698Z,1021.68
2019-02-12T07:26:39.691Z,1021.67
2019-02-12T07:27:39.671Z,1021.76
2019-02-12T07:28:39.656Z,1021.74
2019-02-12T07:29:39.668Z,1021.78
2019-02-12T07:30:39.639Z,1021.78
2019-02-12T07:31:39.637Z,1021.78
2019-02-12T07:32:39.626Z,1021.81
2019-02-12T07:33:39.604Z,1021.86
2019-02-12T07:34:39.616Z,1021.82
2019-02-12T07:35:39.584Z,1021.84
2019-02-12T07:36:40.862Z,1021.87
2019-02-12T07:37:39.572Z,1021.90
2019-02-12T07:38:39.564Z,1021.86
2019-02-12T07:39:39.572Z,1021.88
2019-02-12T07:40:39.533Z,1021.94
2019-02-12T07:41:39.625Z,1022.02
2019-02-12T07:42:39.523Z,1022.03
2019-02-12T07:43:39.525Z,1022.01
2019-02-12T07:44:39.505Z,1022.07
2019-02-12T07:45:39.494Z,1022.05
2019-02-12T07:46:39.496Z,1022.08
2019-02-12T07:47:39.451Z,1022.05
2019-02-12T07:48:39.449Z,1022.00
2019-02-12T07:49:39.471Z,1022.04
2019-02-12T07:50:39.424Z,1022.13
2019-02-12T07:51:39.412Z,1022.08
2019-02-12T07:52:39.409Z,1022.02
2019-02-12T07:53:39.392Z,1022.10
2019-02-12T07:54:39.425Z,1022.15
2019-02-12T07:55:39.371Z,1022.07
2019-02-12T07:56:39.369Z,1022.14
2019-02-12T07:57:39.349Z,1022.22
2019-02-12T07:58:39.339Z,1022.29
2019-02-12T07:59:39.346Z,1022.22
2019-02-12T08:00:39.329Z,1022.28
2019-02-12T08:01:39.310Z,1022.24
2019-02-12T08:02:39.313Z,1022.29
2019-02-12T08:03:39.286Z,1022.25
2019-02-12T08:04:39.290Z,1022.26
2019-02-12T08:05:39.322Z,1022.26
2019-02-12T08:06:39.261Z,1022.30
2019-02-12T08:07:39.252Z,1022.32
2019-02-12T08:08:39.232Z,1022.36
2019-02-12T08:09:39.261Z,1022.35
2019-02-12T08:10:39.211Z,1022.32
2019-02-12T08:11:39.215Z,1022.40
2019-02-12T08:12:39.207Z,1022.41
2019-02-12T08:13:39.188Z,1022.35
2019-02-12T08:14:39.227Z,1022.37
2019-02-12T08:15:39.196Z,1022.32
2019-02-12T08:16:39.148Z,1022.32
2019-02-12T08:17:39.150Z,1022.28
2019-02-12T08:18:39.127Z,1022.34
2019-02-12T08:19:39.146Z,1022.34
2019-02-12T08:20:39.135Z,1022.38
2019-02-12T08:21:39.109Z,1022.35
2019-02-12T08:22:39.832Z,1022.41
2019-02-12T08:23:41.333Z,1022.46
2019-02-12T08:24:39.115Z,1022.43
2019-02-12T08:25:39.069Z,1022.49
2019-02-12T08:26:39.043Z,1022.53
2019-02-12T08:27:39.028Z,1022.58
2019-02-12T08:28:39.038Z,1022.51
2019-02-12T08:29:39.047Z,1022.57
2019-02-12T08:30:39.020Z,1022.65
2019-02-12T08:31:39.000Z,1022.64
2019-02-12T08:32:38.981Z,1022.58
2019-02-12T08:33:38.978Z,1022.56
2019-02-12T08:34:38.982Z,1022.60
2019-02-12T08:35:38.977Z,1022.60
2019-02-12T08:36:38.937Z,1022.64
2019-02-12T08:37:38.936Z,1022.57
2019-02-12T08:38:39.154Z,1022.60
2019-02-12T08:40:39.985Z,1022.53
2019-02-12T08:41:38.881Z,1022.60
2019-02-12T08:42:38.871Z,1022.66
2019-02-12T08:43:38.872Z,1022.67
2019-02-12T08:44:38.871Z,1022.68
2019-02-12T08:45:38.866Z,1022.73
2019-02-12T08:46:38.848Z,1022.68
2019-02-12T08:47:38.823Z,1022.77
2019-02-12T08:48:38.806Z,1022.83
2019-02-12T08:49:38.826Z,1022.78
2019-02-12T08:50:38.800Z,1022.80
2019-02-12T08:51:38.803Z,1022.84
2019-02-12T08:52:38.778Z,1022.90
2019-02-12T08:53:38.765Z,1022.87
2019-02-12T08:54:38.755Z,1022.87
2019-02-12T08:55:38.734Z,1022.92
2019-02-12T08:56:38.852Z,1022.83
2019-02-12T08:57:38.735Z,1022.87
2019-02-12T08:58:38.727Z,1022.94
2019-02-12T08:59:38.711Z,1022.82
2019-02-12T09:00:38.690Z,1022.92
2019-02-12T09:01:38.683Z,1022.95
2019-02-12T09:02:38.658Z,1023.00
2019-02-12T09:03:38.660Z,1022.97
2019-02-12T09:04:38.634Z,1023.01
2019-02-12T09:05:38.629Z,1022.99
2019-02-12T09:06:38.715Z,1022.95
2019-02-12T09:07:38.606Z,1023.00
2019-02-12T09:08:38.593Z,1023.01
2019-02-12T09:09:38.642Z,1023.11
2019-02-12T09:10:38.573Z,1023.06
2019-02-12T09:11:38.607Z,1023.10
2019-02-12T09:12:38.553Z,1023.12
2019-02-12T09:13:38.546Z,1023.08
2019-02-12T09:14:38.539Z,1023.20
2019-02-12T09:15:38.527Z,1023.20
2019-02-12T09:16:38.544Z,1023.09
2019-02-12T09:17:40.185Z,1023.03
2019-02-12T09:18:38.484Z,1023.15
2019-02-12T09:19:38.481Z,1023.18
2019-02-12T09:20:38.467Z,1023.18
2019-02-12T09:21:38.480Z,1023.28
2019-02-12T09:22:38.441Z,1023.11
2019-02-12T09:23:38.439Z,1023.27
2019-02-12T09:24:38.437Z,1023.16
2019-02-12T09:25:38.415Z,1023.27
2019-02-12T09:26:38.831Z,1023.24
2019-02-12T09:27:38.389Z,1023.35
2019-02-12T09:28:38.381Z,1023.28
2019-02-12T09:29:38.370Z,1023.24
2019-02-12T09:30:38.356Z,1023.21
2019-02-12T09:31:38.380Z,1023.30
2019-02-12T09:32:38.344Z,1023.23
2019-02-12T09:33:38.325Z,1023.36
2019-02-12T09:34:38.359Z,1023.34
2019-02-12T09:35:38.312Z,1023.36
2019-02-12T09:36:38.323Z,1023.39
2019-02-12T09:37:38.287Z,1023.36
2019-02-12T09:38:38.304Z,1023.39
2019-02-12T09:39:38.261Z,1023.48
2019-02-12T09:40:38.250Z,1023.45
2019-02-12T09:41:38.257Z,1023.50
2019-02-12T09:42:38.267Z,1023.48
2019-02-12T09:43:38.231Z,1023.53
2019-02-12T09:44:38.213Z,1023.59
2019-02-12T09:45:38.189Z,1023.71
2019-02-12T09:46:38.230Z,1023.72
2019-02-12T09:47:38.197Z,1023.73
2019-02-12T09:48:38.171Z,1023.55
2019-02-12T09:49:38.155Z,1023.73
2019-02-12T09:51:39.399Z,1023.79
2019-02-12T09:52:38.135Z,1023.73
2019-02-12T09:53:38.117Z,1023.84
2019-02-12T09:54:38.135Z,1023.81
2019-02-12T09:55:38.101Z,1023.70
2019-02-12T09:56:38.123Z,1023.74
2019-02-12T09:57:38.069Z,1023.76
2019-02-12T09:58:38.051Z,1023.83
2019-02-12T09:59:38.041Z,1023.93
2019-02-12T10:00:38.038Z,1023.81
2019-02-12T10:01:38.033Z,1023.79
2019-02-12T10:02:38.028Z,1023.92
2019-02-12T10:03:38.013Z,1023.94
2019-02-12T10:04:38.009Z,1023.98
2019-02-12T10:05:37.979Z,1024.03
2019-02-12T10:06:37.979Z,1024.03
2019-02-12T10:07:38.124Z,1023.96
2019-02-12T10:08:37.966Z,1023.97
2019-02-12T10:09:37.949Z,1023.98
2019-02-12T10:10:37.926Z,1023.98
2019-02-12T10:11:37.926Z,1023.98
2019-02-12T10:12:37.930Z,1023.91
2019-02-12T10:13:37.900Z,1023.92
2019-02-12T10:14:37.890Z,1024.05
2019-02-12T10:15:37.879Z,1024.01
2019-02-12T10:17:38.938Z,1024.03
2019-02-12T10:18:37.924Z,1024.12
2019-02-12T10:19:37.925Z,1024.11
2019-02-12T10:20:37.929Z,1023.98
2019-02-12T10:21:37.812Z,1024.11
2019-02-12T10:22:37.842Z,1024.07
2019-02-12T10:23:37.797Z,1024.11
2019-02-12T10:24:37.805Z,1024.05
2019-02-12T10:25:37.778Z,1024.15
2019-02-12T10:26:37.756Z,1024.10
2019-02-12T10:27:37.780Z,1024.18
2019-02-12T10:28:37.744Z,1024.16
2019-02-12T10:29:37.733Z,1024.21
2019-02-12T10:30:37.714Z,1024.35
2019-02-12T10:31:37.711Z,1024.25
2019-02-12T10:32:37.697Z,1024.24
2019-02-12T10:33:37.706Z,1024.23
2019-02-12T10:34:37.675Z,1024.24
2019-02-12T10:35:37.665Z,1024.20
2019-02-12T10:36:37.643Z,1024.31
2019-02-12T10:37:37.634Z,1024.17
2019-02-12T10:38:37.666Z,1024.27
2019-02-12T10:39:37.632Z,1024.20
2019-02-12T10:40:37.617Z,1024.18
2019-02-12T10:41:37.657Z,1024.17
2019-02-12T10:42:37.576Z,1024.17
2019-02-12T10:43:37.727Z,1024.17
2019-02-12T10:44:37.565Z,1024.13
2019-02-12T10:45:37.551Z,1024.24
2019-02-12T10:46:37.555Z,1024.20
2019-02-12T10:47:37.525Z,1024.21
2019-02-12T10:48:37.529Z,1024.16
2019-02-12T10:49:37.504Z,1024.23
2019-02-12T10:50:37.507Z,1024.21
2019-02-12T10:51:37.488Z,1024.25
2019-02-12T10:52:37.481Z,1024.18
2019-02-12T10:53:37.495Z,1024.13
2019-02-12T10:54:37.464Z,1024.27
2019-02-12T10:55:37.446Z,1024.18
2019-02-12T10:56:37.443Z,1024.17
2019-02-12T10:57:37.423Z,1024.16
2019-02-12T10:58:37.442Z,1024.28
2019-02-12T10:59:37.392Z,1024.19
2019-02-12T11:00:37.390Z,1024.35
2019-02-12T11:01:37.391Z,1024.26
2019-02-12T11:02:37.366Z,1024.24
2019-02-12T11:03:37.392Z,1024.22
2019-02-12T11:04:37.364Z,1024.23
2019-02-12T11:05:37.332Z,1024.18
2019-02-12T11:06:37.325Z,1024.24
2019-02-12T11:07:37.314Z,1024.24
2019-02-12T11:08:37.324Z,1024.32
2019-02-12T11:09:37.300Z,1024.30
2019-02-12T11:10:37.290Z,1024.24
2019-02-12T11:11:37.264Z,1024.24
2019-02-12T11:12:37.252Z,1024.31
2019-02-12T11:13:37.269Z,1024.30
2019-02-12T11:14:37.236Z,1024.25
2019-02-12T11:15:37.224Z,1024.25
2019-02-12T11:16:37.218Z,1024.37
2019-02-12T11:17:37.219Z,1024.31
2019-02-12T11:18:37.210Z,1024.24
2019-02-12T11:19:37.184Z,1024.28
2019-02-12T11:20:37.183Z,1024.27
2019-02-12T11:21:37.155Z,1024.33
2019-02-12T11:22:37.144Z,1024.24
2019-02-12T11:23:37.158Z,1024.18
2019-02-12T11:24:37.125Z,1024.30
2019-02-12T11:25:37.119Z,1024.29
2019-02-12T11:26:37.116Z,1024.35
2019-02-12T11:27:37.132Z,1024.31
2019-02-12T11:28:37.102Z,1024.36
2019-02-12T11:29:37.154Z,1024.37
2019-02-12T11:30:37.065Z,1024.36
2019-02-12T11:31:37.092Z,1024.35
2019-02-12T11:32:37.038Z,1024.31
2019-02-12T11:33:37.100Z,1024.30
2019-02-12T11:34:37.040Z,1024.38
2019-02-12T11:35:37.058Z,1024.29
2019-02-12T11:36:36.995Z,1024.41
2019-02-12T11:37:36.994Z,1024.35
2019-02-12T11:38:37.002Z,1024.29
2019-02-12T11:39:36.968Z,1024.36
2019-02-12T11:40:36.951Z,1024.43
2019-02-12T11:41:36.951Z,1024.38
2019-02-12T11:42:36.926Z,1024.35
2019-02-12T11:43:36.950Z,1024.41
2019-02-12T11:44:36.905Z,1024.36
2019-02-12T11:45:36.903Z,1024.42
2019-02-12T11:46:36.885Z,1024.48
2019-02-12T11:47:36.879Z,1024.49
2019-02-12T11:48:36.895Z,1024.43
2019-02-12T11:49:36.874Z,1024.38
2019-02-12T11:50:36.848Z,1024.44
2019-02-12T11:51:36.833Z,1024.38
2019-02-12T11:52:36.816Z,1024.41
2019-02-12T11:53:36.827Z,1024.39
2019-02-12T11:54:43.575Z,1024.36
2019-02-12T11:55:37.787Z,1024.45
2019-02-12T11:56:36.786Z,1024.41
2019-02-12T11:57:36.767Z,1024.43
2019-02-12T11:58:36.770Z,1024.44
2019-02-12T11:59:36.784Z,1024.46
2019-02-12T12:00:36.752Z,1024.52
2019-02-12T12:01:36.722Z,1024.54
2019-02-12T12:02:41.839Z,1024.54
2019-02-12T12:03:37.701Z,1024.60
2019-02-12T12:04:40.104Z,1024.55
2019-02-12T12:05:36.738Z,1024.61
2019-02-12T12:06:36.697Z,1024.58
2019-02-12T12:07:36.665Z,1024.53
2019-02-12T12:08:36.645Z,1024.55
2019-02-12T12:09:36.664Z,1024.58